sensor_id;sensor_type;location;lat;lon;timestamp;P1;durP1;ratioP1;P2;durP2;ratioP2
65831;SDS011;52593;42.648;23.332;2022-11-21T00:10:28;12.55;;;4.70;;
65831;SDS011;52593;42.648;23.332;2022-11-21T00:12:54;9.67;;;4.23;;
65831;SDS011;52593;42.648;23.332;2022-11-21T00:15:21;11.40;;;4.25;;
65831;SDS011;52593;42.648;23.332;2022-11-21T00:17:47;9.30;;;4.55;;
65831;SDS011;52593;42.648;23.332;2022-11-21T00:20:12;8.00;;;3.70;;
65831;SDS011;52593;42.648;23.332;2022-11-21T00:22:37;9.97;;;3.67;;
65831;SDS011;52593;42.648;23.332;2022-11-21T00:25:03;9.87;;;3.77;;
65831;SDS011;52593;42.648;23.332;2022-11-21T00:27:29;7.65;;;3.13;;
65831;SDS011;52593;42.648;23.332;2022-11-21T00:29:54;8.77;;;3.60;;
65831;SDS011;52593;42.648;23.332;2022-11-21T00:32:20;10.40;;;3.40;;
65831;SDS011;52593;42.648;23.332;2022-11-21T00:34:45;9.57;;;3.07;;
65831;SDS011;52593;42.648;23.332;2022-11-21T00:37:10;7.47;;;3.40;;
65831;SDS011;52593;42.648;23.332;2022-11-21T00:39:36;7.30;;;3.40;;
65831;SDS011;52593;42.648;23.332;2022-11-21T00:42:01;8.70;;;4.07;;
65831;SDS011;52593;42.648;23.332;2022-11-21T00:44:27;9.75;;;3.67;;
65831;SDS011;52593;42.648;23.332;2022-11-21T00:46:52;9.57;;;4.27;;
65831;SDS011;52593;42.648;23.332;2022-11-21T00:49:17;10.27;;;4.53;;
65831;SDS011;52593;42.648;23.332;2022-11-21T00:51:43;10.90;;;4.60;;
65831;SDS011;52593;42.648;23.332;2022-11-21T00:54:08;9.47;;;4.50;;
65831;SDS011;52593;42.648;23.332;2022-11-21T00:56:34;9.90;;;3.85;;
65831;SDS011;52593;42.648;23.332;2022-11-21T00:58:59;12.63;;;4.70;;
65831;SDS011;52593;42.648;23.332;2022-11-21T01:01:24;11.10;;;4.80;;
65831;SDS011;52593;42.648;23.332;2022-11-21T01:03:50;9.57;;;4.33;;
65831;SDS011;52593;42.648;23.332;2022-11-21T01:06:15;11.03;;;5.07;;
65831;SDS011;52593;42.648;23.332;2022-11-21T01:08:41;11.40;;;4.55;;
65831;SDS011;52593;42.648;23.332;2022-11-21T01:11:10;14.50;;;5.17;;
65831;SDS011;52593;42.648;23.332;2022-11-21T01:13:37;13.02;;;5.20;;
65831;SDS011;52593;42.648;23.332;2022-11-21T01:16:11;10.93;;;5.22;;
65831;SDS011;52593;42.648;23.332;2022-11-21T01:18:37;12.27;;;5.18;;
65831;SDS011;52593;42.648;23.332;2022-11-21T01:21:07;10.13;;;3.70;;
65831;SDS011;52593;42.648;23.332;2022-11-21T01:23:37;10.05;;;3.92;;
65831;SDS011;52593;42.648;23.332;2022-11-21T01:26:12;11.57;;;4.50;;
65831;SDS011;52593;42.648;23.332;2022-11-21T01:28:40;10.75;;;4.60;;
65831;SDS011;52593;42.648;23.332;2022-11-21T01:31:07;11.30;;;4.10;;
65831;SDS011;52593;42.648;23.332;2022-11-21T01:33:34;9.03;;;3.90;;
65831;SDS011;52593;42.648;23.332;2022-11-21T01:38:32;9.48;;;3.75;;
65831;SDS011;52593;42.648;23.332;2022-11-21T01:40:58;9.13;;;3.78;;
65831;SDS011;52593;42.648;23.332;2022-11-21T01:43:23;12.50;;;4.53;;
65831;SDS011;52593;42.648;23.332;2022-11-21T01:48:33;8.88;;;3.72;;
65831;SDS011;52593;42.648;23.332;2022-11-21T01:51:06;8.45;;;3.72;;
65831;SDS011;52593;42.648;23.332;2022-11-21T01:53:37;13.57;;;5.03;;
65831;SDS011;52593;42.648;23.332;2022-11-21T01:56:04;15.00;;;4.70;;
65831;SDS011;52593;42.648;23.332;2022-11-21T01:58:31;9.88;;;4.32;;
65831;SDS011;52593;42.648;23.332;2022-11-21T02:00:59;9.80;;;4.35;;
65831;SDS011;52593;42.648;23.332;2022-11-21T02:03:26;9.35;;;4.20;;
65831;SDS011;52593;42.648;23.332;2022-11-21T02:05:55;9.45;;;4.10;;
65831;SDS011;52593;42.648;23.332;2022-11-21T02:08:22;8.37;;;4.10;;
65831;SDS011;52593;42.648;23.332;2022-11-21T02:10:59;9.93;;;3.97;;
65831;SDS011;52593;42.648;23.332;2022-11-21T02:13:33;9.57;;;4.40;;
65831;SDS011;52593;42.648;23.332;2022-11-21T02:15:59;10.43;;;4.23;;
65831;SDS011;52593;42.648;23.332;2022-11-21T02:18:24;9.52;;;3.83;;
65831;SDS011;52593;42.648;23.332;2022-11-21T02:20:51;12.87;;;4.10;;
65831;SDS011;52593;42.648;23.332;2022-11-21T02:25:49;8.23;;;3.23;;
65831;SDS011;52593;42.648;23.332;2022-11-21T02:28:16;7.97;;;3.07;;
65831;SDS011;52593;42.648;23.332;2022-11-21T02:30:44;9.48;;;2.63;;
65831;SDS011;52593;42.648;23.332;2022-11-21T02:33:10;8.40;;;2.78;;
65831;SDS011;52593;42.648;23.332;2022-11-21T02:35:36;9.93;;;2.90;;
65831;SDS011;52593;42.648;23.332;2022-11-21T02:41:11;11.13;;;4.40;;
65831;SDS011;52593;42.648;23.332;2022-11-21T02:43:41;11.05;;;3.75;;
65831;SDS011;52593;42.648;23.332;2022-11-21T02:46:19;8.88;;;2.78;;
65831;SDS011;52593;42.648;23.332;2022-11-21T02:48:45;7.43;;;2.70;;
65831;SDS011;52593;42.648;23.332;2022-11-21T02:51:10;6.87;;;2.43;;
65831;SDS011;52593;42.648;23.332;2022-11-21T02:53:36;7.37;;;2.63;;
65831;SDS011;52593;42.648;23.332;2022-11-21T02:56:01;10.97;;;3.73;;
65831;SDS011;52593;42.648;23.332;2022-11-21T02:58:27;8.10;;;3.40;;
65831;SDS011;52593;42.648;23.332;2022-11-21T03:00:52;8.50;;;3.67;;
65831;SDS011;52593;42.648;23.332;2022-11-21T03:03:19;9.90;;;3.42;;
65831;SDS011;52593;42.648;23.332;2022-11-21T03:05:44;9.60;;;3.92;;
65831;SDS011;52593;42.648;23.332;2022-11-21T03:08:10;9.37;;;4.03;;
65831;SDS011;52593;42.648;23.332;2022-11-21T03:10:35;9.10;;;3.57;;
65831;SDS011;52593;42.648;23.332;2022-11-21T03:13:01;9.40;;;3.40;;
65831;SDS011;52593;42.648;23.332;2022-11-21T03:15:31;8.23;;;3.73;;
65831;SDS011;52593;42.648;23.332;2022-11-21T03:17:58;10.13;;;2.90;;
65831;SDS011;52593;42.648;23.332;2022-11-21T03:20:25;9.00;;;2.85;;
65831;SDS011;52593;42.648;23.332;2022-11-21T03:22:50;9.63;;;3.17;;
65831;SDS011;52593;42.648;23.332;2022-11-21T03:25:17;6.93;;;2.60;;
65831;SDS011;52593;42.648;23.332;2022-11-21T03:27:43;7.10;;;1.92;;
65831;SDS011;52593;42.648;23.332;2022-11-21T03:30:09;5.53;;;1.63;;
65831;SDS011;52593;42.648;23.332;2022-11-21T03:32:35;4.63;;;1.30;;
65831;SDS011;52593;42.648;23.332;2022-11-21T03:35:00;5.80;;;1.63;;
65831;SDS011;52593;42.648;23.332;2022-11-21T03:37:26;7.33;;;1.27;;
65831;SDS011;52593;42.648;23.332;2022-11-21T03:39:51;7.47;;;1.73;;
65831;SDS011;52593;42.648;23.332;2022-11-21T03:42:16;4.45;;;1.10;;
65831;SDS011;52593;42.648;23.332;2022-11-21T03:44:42;6.47;;;1.73;;
65831;SDS011;52593;42.648;23.332;2022-11-21T03:47:07;8.13;;;1.53;;
65831;SDS011;52593;42.648;23.332;2022-11-21T03:49:32;4.60;;;1.40;;
65831;SDS011;52593;42.648;23.332;2022-11-21T03:51:58;5.20;;;1.20;;
65831;SDS011;52593;42.648;23.332;2022-11-21T03:54:23;5.50;;;1.35;;
65831;SDS011;52593;42.648;23.332;2022-11-21T03:56:49;6.60;;;1.10;;
65831;SDS011;52593;42.648;23.332;2022-11-21T03:59:14;4.13;;;1.40;;
65831;SDS011;52593;42.648;23.332;2022-11-21T04:01:39;6.13;;;1.10;;
65831;SDS011;52593;42.648;23.332;2022-11-21T04:04:05;5.03;;;1.00;;
65831;SDS011;52593;42.648;23.332;2022-11-21T04:06:30;4.00;;;0.70;;
65831;SDS011;52593;42.648;23.332;2022-11-21T04:08:55;5.47;;;0.90;;
65831;SDS011;52593;42.648;23.332;2022-11-21T04:11:21;3.97;;;0.90;;
65831;SDS011;52593;42.648;23.332;2022-11-21T04:13:48;5.38;;;0.90;;
65831;SDS011;52593;42.648;23.332;2022-11-21T04:16:14;9.15;;;1.08;;
65831;SDS011;52593;42.648;23.332;2022-11-21T04:18:39;3.30;;;0.63;;
65831;SDS011;52593;42.648;23.332;2022-11-21T04:21:06;5.63;;;0.87;;
65831;SDS011;52593;42.648;23.332;2022-11-21T04:23:32;6.22;;;0.90;;
65831;SDS011;52593;42.648;23.332;2022-11-21T04:25:58;4.00;;;0.90;;
65831;SDS011;52593;42.648;23.332;2022-11-21T04:28:24;4.18;;;1.00;;
65831;SDS011;52593;42.648;23.332;2022-11-21T04:30:50;6.70;;;1.17;;
65831;SDS011;52593;42.648;23.332;2022-11-21T04:33:15;5.32;;;0.95;;
65831;SDS011;52593;42.648;23.332;2022-11-21T04:35:42;6.00;;;0.80;;
65831;SDS011;52593;42.648;23.332;2022-11-21T04:38:08;5.95;;;0.80;;
65831;SDS011;52593;42.648;23.332;2022-11-21T04:40:34;4.32;;;0.80;;
65831;SDS011;52593;42.648;23.332;2022-11-21T04:43:00;4.75;;;1.30;;
65831;SDS011;52593;42.648;23.332;2022-11-21T04:45:26;4.53;;;0.70;;
65831;SDS011;52593;42.648;23.332;2022-11-21T04:47:51;5.50;;;0.87;;
65831;SDS011;52593;42.648;23.332;2022-11-21T04:50:17;4.38;;;1.00;;
65831;SDS011;52593;42.648;23.332;2022-11-21T04:52:49;4.50;;;0.90;;
65831;SDS011;52593;42.648;23.332;2022-11-21T04:55:16;3.42;;;0.88;;
65831;SDS011;52593;42.648;23.332;2022-11-21T04:57:42;4.80;;;1.20;;
65831;SDS011;52593;42.648;23.332;2022-11-21T05:00:07;6.37;;;1.53;;
65831;SDS011;52593;42.648;23.332;2022-11-21T05:02:33;6.18;;;1.90;;
65831;SDS011;52593;42.648;23.332;2022-11-21T05:04:58;7.70;;;2.10;;
65831;SDS011;52593;42.648;23.332;2022-11-21T05:07:24;5.83;;;1.70;;
65831;SDS011;52593;42.648;23.332;2022-11-21T05:09:49;8.45;;;2.33;;
65831;SDS011;52593;42.648;23.332;2022-11-21T05:12:15;7.77;;;2.00;;
65831;SDS011;52593;42.648;23.332;2022-11-21T05:15:13;5.15;;;1.70;;
65831;SDS011;52593;42.648;23.332;2022-11-21T05:17:38;8.20;;;2.00;;
65831;SDS011;52593;42.648;23.332;2022-11-21T05:20:03;6.43;;;1.50;;
65831;SDS011;52593;42.648;23.332;2022-11-21T05:22:29;7.40;;;1.33;;
65831;SDS011;52593;42.648;23.332;2022-11-21T05:24:55;4.73;;;1.10;;
65831;SDS011;52593;42.648;23.332;2022-11-21T05:27:20;5.38;;;1.38;;
65831;SDS011;52593;42.648;23.332;2022-11-21T05:29:46;6.90;;;1.57;;
65831;SDS011;52593;42.648;23.332;2022-11-21T05:32:11;7.33;;;1.43;;
65831;SDS011;52593;42.648;23.332;2022-11-21T05:34:36;5.13;;;1.20;;
65831;SDS011;52593;42.648;23.332;2022-11-21T05:37:02;4.00;;;1.40;;
65831;SDS011;52593;42.648;23.332;2022-11-21T05:39:27;7.13;;;1.80;;
65831;SDS011;52593;42.648;23.332;2022-11-21T05:41:53;7.10;;;2.00;;
65831;SDS011;52593;42.648;23.332;2022-11-21T05:44:18;5.57;;;1.60;;
65831;SDS011;52593;42.648;23.332;2022-11-21T05:46:44;7.93;;;1.40;;
65831;SDS011;52593;42.648;23.332;2022-11-21T05:49:09;5.87;;;1.70;;
65831;SDS011;52593;42.648;23.332;2022-11-21T05:51:35;6.30;;;1.70;;
65831;SDS011;52593;42.648;23.332;2022-11-21T05:54:00;4.37;;;1.00;;
65831;SDS011;52593;42.648;23.332;2022-11-21T05:56:26;5.23;;;1.13;;
65831;SDS011;52593;42.648;23.332;2022-11-21T05:58:54;5.93;;;0.80;;
65831;SDS011;52593;42.648;23.332;2022-11-21T06:01:21;3.78;;;1.00;;
65831;SDS011;52593;42.648;23.332;2022-11-21T06:04:05;3.83;;;0.80;;
65831;SDS011;52593;42.648;23.332;2022-11-21T06:06:31;4.40;;;0.95;;
65831;SDS011;52593;42.648;23.332;2022-11-21T06:08:57;5.07;;;1.17;;
65831;SDS011;52593;42.648;23.332;2022-11-21T06:11:22;4.00;;;1.00;;
65831;SDS011;52593;42.648;23.332;2022-11-21T06:13:47;5.87;;;0.70;;
65831;SDS011;52593;42.648;23.332;2022-11-21T06:16:16;3.55;;;1.02;;
65831;SDS011;52593;42.648;23.332;2022-11-21T06:18:44;3.30;;;0.70;;
65831;SDS011;52593;42.648;23.332;2022-11-21T06:23:40;2.15;;;0.50;;
65831;SDS011;52593;42.648;23.332;2022-11-21T06:26:07;3.75;;;0.60;;
65831;SDS011;52593;42.648;23.332;2022-11-21T06:28:36;2.47;;;0.40;;
65831;SDS011;52593;42.648;23.332;2022-11-21T06:33:33;3.47;;;0.80;;
65831;SDS011;52593;42.648;23.332;2022-11-21T06:36:02;4.00;;;0.65;;
65831;SDS011;52593;42.648;23.332;2022-11-21T06:38:29;3.67;;;0.80;;
65831;SDS011;52593;42.648;23.332;2022-11-21T06:40:54;4.30;;;0.90;;
65831;SDS011;52593;42.648;23.332;2022-11-21T06:43:20;3.40;;;0.87;;
65831;SDS011;52593;42.648;23.332;2022-11-21T06:45:45;2.77;;;0.70;;
65831;SDS011;52593;42.648;23.332;2022-11-21T06:48:10;4.23;;;1.10;;
65831;SDS011;52593;42.648;23.332;2022-11-21T06:50:36;3.47;;;0.70;;
65831;SDS011;52593;42.648;23.332;2022-11-21T06:53:02;3.37;;;0.60;;
65831;SDS011;52593;42.648;23.332;2022-11-21T06:55:29;2.50;;;0.50;;
65831;SDS011;52593;42.648;23.332;2022-11-21T06:57:58;2.95;;;0.80;;
65831;SDS011;52593;42.648;23.332;2022-11-21T07:00:26;2.53;;;0.70;;
65831;SDS011;52593;42.648;23.332;2022-11-21T07:02:53;2.80;;;0.70;;
65831;SDS011;52593;42.648;23.332;2022-11-21T07:05:19;3.05;;;0.70;;
65831;SDS011;52593;42.648;23.332;2022-11-21T07:07:44;2.90;;;0.80;;
65831;SDS011;52593;42.648;23.332;2022-11-21T07:10:10;2.20;;;0.50;;
65831;SDS011;52593;42.648;23.332;2022-11-21T07:12:35;13.30;;;0.70;;
65831;SDS011;52593;42.648;23.332;2022-11-21T07:15:19;2.75;;;0.70;;
65831;SDS011;52593;42.648;23.332;2022-11-21T07:17:45;3.47;;;0.63;;
65831;SDS011;52593;42.648;23.332;2022-11-21T07:20:10;4.53;;;0.70;;
65831;SDS011;52593;42.648;23.332;2022-11-21T07:22:36;2.57;;;0.60;;
65831;SDS011;52593;42.648;23.332;2022-11-21T07:25:01;2.40;;;0.60;;
65831;SDS011;52593;42.648;23.332;2022-11-21T07:27:27;4.00;;;0.73;;
65831;SDS011;52593;42.648;23.332;2022-11-21T07:29:53;2.90;;;0.50;;
65831;SDS011;52593;42.648;23.332;2022-11-21T07:32:21;2.40;;;0.50;;
65831;SDS011;52593;42.648;23.332;2022-11-21T07:34:47;3.72;;;0.60;;
65831;SDS011;52593;42.648;23.332;2022-11-21T07:37:12;2.77;;;0.93;;
65831;SDS011;52593;42.648;23.332;2022-11-21T07:39:37;3.77;;;1.00;;
65831;SDS011;52593;42.648;23.332;2022-11-21T07:42:03;2.60;;;0.63;;
65831;SDS011;52593;42.648;23.332;2022-11-21T07:44:28;3.77;;;0.80;;
65831;SDS011;52593;42.648;23.332;2022-11-21T07:46:54;3.20;;;0.80;;
65831;SDS011;52593;42.648;23.332;2022-11-21T07:49:20;2.30;;;0.60;;
65831;SDS011;52593;42.648;23.332;2022-11-21T07:51:46;2.83;;;0.77;;
65831;SDS011;52593;42.648;23.332;2022-11-21T07:54:11;4.33;;;1.20;;
65831;SDS011;52593;42.648;23.332;2022-11-21T07:56:36;3.60;;;1.03;;
65831;SDS011;52593;42.648;23.332;2022-11-21T07:59:02;4.20;;;0.80;;
65831;SDS011;52593;42.648;23.332;2022-11-21T08:01:27;5.50;;;1.30;;
65831;SDS011;52593;42.648;23.332;2022-11-21T08:03:53;3.22;;;0.85;;
65831;SDS011;52593;42.648;23.332;2022-11-21T08:06:18;3.23;;;0.87;;
65831;SDS011;52593;42.648;23.332;2022-11-21T08:08:43;3.17;;;0.67;;
65831;SDS011;52593;42.648;23.332;2022-11-21T08:11:09;3.53;;;1.07;;
65831;SDS011;52593;42.648;23.332;2022-11-21T08:13:34;4.93;;;1.27;;
65831;SDS011;52593;42.648;23.332;2022-11-21T08:16:02;4.50;;;1.20;;
65831;SDS011;52593;42.648;23.332;2022-11-21T08:18:28;4.03;;;1.20;;
65831;SDS011;52593;42.648;23.332;2022-11-21T08:20:54;2.35;;;0.70;;
65831;SDS011;52593;42.648;23.332;2022-11-21T08:23:20;3.13;;;0.80;;
65831;SDS011;52593;42.648;23.332;2022-11-21T08:25:45;3.33;;;0.67;;
65831;SDS011;52593;42.648;23.332;2022-11-21T08:28:11;3.90;;;1.00;;
65831;SDS011;52593;42.648;23.332;2022-11-21T08:30:37;4.00;;;0.80;;
65831;SDS011;52593;42.648;23.332;2022-11-21T08:33:03;3.03;;;0.80;;
65831;SDS011;52593;42.648;23.332;2022-11-21T08:35:29;3.03;;;0.68;;
65831;SDS011;52593;42.648;23.332;2022-11-21T08:37:58;3.37;;;0.83;;
65831;SDS011;52593;42.648;23.332;2022-11-21T08:40:25;2.65;;;0.80;;
65831;SDS011;52593;42.648;23.332;2022-11-21T08:42:58;3.22;;;0.70;;
65831;SDS011;52593;42.648;23.332;2022-11-21T08:45:28;3.30;;;0.80;;
65831;SDS011;52593;42.648;23.332;2022-11-21T08:47:54;2.87;;;0.73;;
65831;SDS011;52593;42.648;23.332;2022-11-21T08:50:20;4.05;;;0.82;;
65831;SDS011;52593;42.648;23.332;2022-11-21T08:52:46;7.07;;;1.93;;
65831;SDS011;52593;42.648;23.332;2022-11-21T08:55:12;8.65;;;2.83;;
65831;SDS011;52593;42.648;23.332;2022-11-21T08:57:38;4.45;;;1.60;;
65831;SDS011;52593;42.648;23.332;2022-11-21T09:00:05;5.97;;;2.23;;
65831;SDS011;52593;42.648;23.332;2022-11-21T09:02:32;4.28;;;1.45;;
65831;SDS011;52593;42.648;23.332;2022-11-21T09:04:57;6.50;;;2.07;;
65831;SDS011;52593;42.648;23.332;2022-11-21T09:07:23;3.30;;;0.90;;
65831;SDS011;52593;42.648;23.332;2022-11-21T09:09:49;4.70;;;1.60;;
65831;SDS011;52593;42.648;23.332;2022-11-21T09:12:15;5.97;;;1.80;;
65831;SDS011;52593;42.648;23.332;2022-11-21T09:14:40;3.97;;;1.10;;
65831;SDS011;52593;42.648;23.332;2022-11-21T09:17:24;4.47;;;1.83;;
65831;SDS011;52593;42.648;23.332;2022-11-21T09:20:08;4.78;;;1.33;;
65831;SDS011;52593;42.648;23.332;2022-11-21T09:22:34;3.30;;;0.70;;
65831;SDS011;52593;42.648;23.332;2022-11-21T09:24:59;3.13;;;0.90;;
65831;SDS011;52593;42.648;23.332;2022-11-21T09:27:24;4.80;;;1.37;;
65831;SDS011;52593;42.648;23.332;2022-11-21T09:29:50;3.90;;;1.00;;
65831;SDS011;52593;42.648;23.332;2022-11-21T09:32:15;5.17;;;1.57;;
65831;SDS011;52593;42.648;23.332;2022-11-21T09:34:41;3.70;;;1.30;;
65831;SDS011;52593;42.648;23.332;2022-11-21T09:37:06;3.63;;;1.48;;
65831;SDS011;52593;42.648;23.332;2022-11-21T09:39:31;3.60;;;1.20;;
65831;SDS011;52593;42.648;23.332;2022-11-21T09:42:05;9.05;;;2.90;;
65831;SDS011;52593;42.648;23.332;2022-11-21T09:49:52;10.02;;;3.60;;
65831;SDS011;52593;42.648;23.332;2022-11-21T09:57:59;3.47;;;1.10;;
65831;SDS011;52593;42.648;23.332;2022-11-21T10:00:28;3.70;;;1.27;;
65831;SDS011;52593;42.648;23.332;2022-11-21T10:02:54;4.13;;;1.40;;
65831;SDS011;52593;42.648;23.332;2022-11-21T10:05:43;5.25;;;1.60;;
65831;SDS011;52593;42.648;23.332;2022-11-21T10:10:49;5.30;;;1.90;;
65831;SDS011;52593;42.648;23.332;2022-11-21T10:16:28;4.63;;;1.58;;
65831;SDS011;52593;42.648;23.332;2022-11-21T10:19:21;5.50;;;2.03;;
65831;SDS011;52593;42.648;23.332;2022-11-21T10:30:29;5.90;;;1.95;;
65831;SDS011;52593;42.648;23.332;2022-11-21T10:32:55;6.07;;;2.60;;
65831;SDS011;52593;42.648;23.332;2022-11-21T10:38:24;5.38;;;2.33;;
65831;SDS011;52593;42.648;23.332;2022-11-21T10:41:04;4.85;;;1.75;;
65831;SDS011;52593;42.648;23.332;2022-11-21T10:43:33;5.38;;;2.17;;
65831;SDS011;52593;42.648;23.332;2022-11-21T10:46:23;6.60;;;2.80;;
65831;SDS011;52593;42.648;23.332;2022-11-21T10:48:54;5.20;;;2.30;;
65831;SDS011;52593;42.648;23.332;2022-11-21T10:54:08;5.93;;;1.93;;
65831;SDS011;52593;42.648;23.332;2022-11-21T10:56:53;4.72;;;1.80;;
65831;SDS011;52593;42.648;23.332;2022-11-21T10:59:27;5.85;;;2.35;;
65831;SDS011;52593;42.648;23.332;2022-11-21T11:02:39;5.25;;;2.63;;
65831;SDS011;52593;42.648;23.332;2022-11-21T11:04:39;5.85;;;2.35;;
65831;SDS011;52593;42.648;23.332;2022-11-21T11:09:50;6.10;;;2.67;;
65831;SDS011;52593;42.648;23.332;2022-11-21T11:12:24;5.97;;;2.53;;
65831;SDS011;52593;42.648;23.332;2022-11-21T11:15:30;7.30;;;2.73;;
65831;SDS011;52593;42.648;23.332;2022-11-21T11:17:59;6.22;;;2.58;;
65831;SDS011;52593;42.648;23.332;2022-11-21T11:20:36;6.80;;;2.45;;
65831;SDS011;52593;42.648;23.332;2022-11-21T11:25:43;8.55;;;2.22;;
65831;SDS011;52593;42.648;23.332;2022-11-21T11:28:12;7.40;;;3.40;;
65831;SDS011;52593;42.648;23.332;2022-11-21T11:30:37;7.32;;;3.20;;
65831;SDS011;52593;42.648;23.332;2022-11-21T11:33:04;7.20;;;2.90;;
65831;SDS011;52593;42.648;23.332;2022-11-21T11:35:31;5.38;;;1.73;;
65831;SDS011;52593;42.648;23.332;2022-11-21T11:37:59;6.95;;;2.33;;
65831;SDS011;52593;42.648;23.332;2022-11-21T11:40:39;7.07;;;2.15;;
65831;SDS011;52593;42.648;23.332;2022-11-21T11:43:12;6.68;;;2.20;;
65831;SDS011;52593;42.648;23.332;2022-11-21T11:49:03;5.22;;;1.70;;
65831;SDS011;52593;42.648;23.332;2022-11-21T11:51:39;5.20;;;2.10;;
65831;SDS011;52593;42.648;23.332;2022-11-21T11:54:19;4.97;;;2.00;;
65831;SDS011;52593;42.648;23.332;2022-11-21T11:56:49;4.97;;;1.90;;
65831;SDS011;52593;42.648;23.332;2022-11-21T12:01:48;6.05;;;2.00;;
65831;SDS011;52593;42.648;23.332;2022-11-21T12:11:53;5.25;;;1.83;;
65831;SDS011;52593;42.648;23.332;2022-11-21T12:14:49;5.50;;;2.17;;
65831;SDS011;52593;42.648;23.332;2022-11-21T12:20:30;7.75;;;2.50;;
65831;SDS011;52593;42.648;23.332;2022-11-21T12:23:03;4.93;;;1.67;;
65831;SDS011;52593;42.648;23.332;2022-11-21T12:25:32;8.38;;;3.10;;
65831;SDS011;52593;42.648;23.332;2022-11-21T12:28:03;6.87;;;2.03;;
65831;SDS011;52593;42.648;23.332;2022-11-21T12:30:48;6.00;;;2.63;;
65831;SDS011;52593;42.648;23.332;2022-11-21T12:33:24;5.60;;;1.75;;
65831;SDS011;52593;42.648;23.332;2022-11-21T12:36:13;8.80;;;3.90;;
65831;SDS011;52593;42.648;23.332;2022-11-21T12:38:48;7.50;;;2.90;;
65831;SDS011;52593;42.648;23.332;2022-11-21T12:52:36;4.93;;;1.63;;
65831;SDS011;52593;42.648;23.332;2022-11-21T12:55:29;6.32;;;1.50;;
65831;SDS011;52593;42.648;23.332;2022-11-21T12:58:04;4.72;;;1.77;;
65831;SDS011;52593;42.648;23.332;2022-11-21T13:03:30;5.90;;;2.03;;
65831;SDS011;52593;42.648;23.332;2022-11-21T13:06:03;5.15;;;1.98;;
65831;SDS011;52593;42.648;23.332;2022-11-21T13:08:35;6.85;;;1.77;;
65831;SDS011;52593;42.648;23.332;2022-11-21T13:11:23;8.02;;;3.10;;
65831;SDS011;52593;42.648;23.332;2022-11-21T13:25:11;8.15;;;3.10;;
65831;SDS011;52593;42.648;23.332;2022-11-21T13:30:50;8.60;;;3.67;;
65831;SDS011;52593;42.648;23.332;2022-11-21T13:36:05;6.30;;;2.40;;
65831;SDS011;52593;42.648;23.332;2022-11-21T13:39:24;7.13;;;3.15;;
65831;SDS011;52593;42.648;23.332;2022-11-21T13:55:12;7.67;;;2.87;;
65831;SDS011;52593;42.648;23.332;2022-11-21T14:06:27;9.60;;;3.25;;
65831;SDS011;52593;42.648;23.332;2022-11-21T14:17:16;12.02;;;4.45;;
65831;SDS011;52593;42.648;23.332;2022-11-21T14:19:44;8.98;;;3.85;;
65831;SDS011;52593;42.648;23.332;2022-11-21T14:22:14;6.50;;;2.93;;
65831;SDS011;52593;42.648;23.332;2022-11-21T14:24:49;8.25;;;3.42;;
65831;SDS011;52593;42.648;23.332;2022-11-21T14:27:20;8.75;;;3.63;;
65831;SDS011;52593;42.648;23.332;2022-11-21T14:29:51;9.13;;;3.55;;
65831;SDS011;52593;42.648;23.332;2022-11-21T14:32:16;8.67;;;3.30;;
65831;SDS011;52593;42.648;23.332;2022-11-21T14:34:49;10.02;;;4.40;;
65831;SDS011;52593;42.648;23.332;2022-11-21T14:37:15;11.07;;;3.90;;
65831;SDS011;52593;42.648;23.332;2022-11-21T14:39:40;16.10;;;6.53;;
65831;SDS011;52593;42.648;23.332;2022-11-21T14:42:10;11.27;;;4.78;;
65831;SDS011;52593;42.648;23.332;2022-11-21T14:44:39;13.73;;;5.90;;
65831;SDS011;52593;42.648;23.332;2022-11-21T14:47:14;10.60;;;4.72;;
65831;SDS011;52593;42.648;23.332;2022-11-21T14:49:48;10.47;;;4.70;;
65831;SDS011;52593;42.648;23.332;2022-11-21T14:54:50;11.32;;;4.10;;
65831;SDS011;52593;42.648;23.332;2022-11-21T14:57:19;10.15;;;4.18;;
65831;SDS011;52593;42.648;23.332;2022-11-21T14:59:48;9.80;;;4.18;;
65831;SDS011;52593;42.648;23.332;2022-11-21T15:04:48;9.98;;;4.45;;
65831;SDS011;52593;42.648;23.332;2022-11-21T15:07:20;7.63;;;3.50;;
65831;SDS011;52593;42.648;23.332;2022-11-21T15:09:52;10.18;;;4.22;;
65831;SDS011;52593;42.648;23.332;2022-11-21T15:15:32;9.00;;;3.55;;
65831;SDS011;52593;42.648;23.332;2022-11-21T15:18:10;8.48;;;3.22;;
65831;SDS011;52593;42.648;23.332;2022-11-21T15:20:42;9.30;;;3.33;;
65831;SDS011;52593;42.648;23.332;2022-11-21T15:23:24;9.23;;;4.05;;
65831;SDS011;52593;42.648;23.332;2022-11-21T15:25:54;10.33;;;4.20;;
65831;SDS011;52593;42.648;23.332;2022-11-21T15:28:20;8.40;;;3.50;;
65831;SDS011;52593;42.648;23.332;2022-11-21T15:30:46;10.63;;;4.70;;
65831;SDS011;52593;42.648;23.332;2022-11-21T15:33:12;10.60;;;4.03;;
65831;SDS011;52593;42.648;23.332;2022-11-21T15:46:00;17.57;;;8.20;;
65831;SDS011;52593;42.648;23.332;2022-11-21T15:48:27;11.43;;;5.22;;
65831;SDS011;52593;42.648;23.332;2022-11-21T15:50:52;11.87;;;5.10;;
65831;SDS011;52593;42.648;23.332;2022-11-21T15:53:18;13.23;;;5.57;;
65831;SDS011;52593;42.648;23.332;2022-11-21T15:55:44;11.20;;;4.87;;
65831;SDS011;52593;42.648;23.332;2022-11-21T15:58:09;10.27;;;4.37;;
65831;SDS011;52593;42.648;23.332;2022-11-21T16:00:34;13.20;;;5.60;;
65831;SDS011;52593;42.648;23.332;2022-11-21T16:03:00;11.80;;;5.77;;
65831;SDS011;52593;42.648;23.332;2022-11-21T16:05:25;12.00;;;5.53;;
65831;SDS011;52593;42.648;23.332;2022-11-21T16:07:51;10.95;;;5.13;;
65831;SDS011;52593;42.648;23.332;2022-11-21T16:10:16;11.33;;;4.87;;
65831;SDS011;52593;42.648;23.332;2022-11-21T16:12:42;10.63;;;5.00;;
65831;SDS011;52593;42.648;23.332;2022-11-21T16:15:07;11.70;;;5.17;;
65831;SDS011;52593;42.648;23.332;2022-11-21T16:17:33;11.32;;;4.93;;
65831;SDS011;52593;42.648;23.332;2022-11-21T16:19:59;13.27;;;6.10;;
65831;SDS011;52593;42.648;23.332;2022-11-21T16:22:24;11.98;;;5.57;;
65831;SDS011;52593;42.648;23.332;2022-11-21T16:24:50;8.43;;;3.50;;
65831;SDS011;52593;42.648;23.332;2022-11-21T16:27:15;7.63;;;3.60;;
65831;SDS011;52593;42.648;23.332;2022-11-21T16:29:41;9.33;;;3.93;;
65831;SDS011;52593;42.648;23.332;2022-11-21T16:32:06;8.47;;;3.70;;
65831;SDS011;52593;42.648;23.332;2022-11-21T16:34:31;8.50;;;4.17;;
65831;SDS011;52593;42.648;23.332;2022-11-21T16:36:57;11.20;;;4.43;;
65831;SDS011;52593;42.648;23.332;2022-11-21T16:39:22;10.83;;;4.60;;
65831;SDS011;52593;42.648;23.332;2022-11-21T16:41:47;10.03;;;4.67;;
65831;SDS011;52593;42.648;23.332;2022-11-21T16:44:14;10.40;;;5.10;;
65831;SDS011;52593;42.648;23.332;2022-11-21T16:46:41;9.00;;;3.10;;
65831;SDS011;52593;42.648;23.332;2022-11-21T16:49:08;11.25;;;4.90;;
65831;SDS011;52593;42.648;23.332;2022-11-21T16:51:34;7.07;;;3.00;;
65831;SDS011;52593;42.648;23.332;2022-11-21T16:53:59;8.00;;;3.60;;
65831;SDS011;52593;42.648;23.332;2022-11-21T16:56:25;8.27;;;3.63;;
65831;SDS011;52593;42.648;23.332;2022-11-21T16:58:55;7.78;;;2.42;;
65831;SDS011;52593;42.648;23.332;2022-11-21T17:01:22;6.17;;;2.63;;
65831;SDS011;52593;42.648;23.332;2022-11-21T17:03:50;6.30;;;2.53;;
65831;SDS011;52593;42.648;23.332;2022-11-21T17:06:17;11.02;;;4.05;;
65831;SDS011;52593;42.648;23.332;2022-11-21T17:08:47;11.52;;;5.20;;
65831;SDS011;52593;42.648;23.332;2022-11-21T17:11:13;10.63;;;4.40;;
65831;SDS011;52593;42.648;23.332;2022-11-21T17:13:39;13.70;;;5.32;;
65831;SDS011;52593;42.648;23.332;2022-11-21T17:16:05;10.43;;;3.93;;